Time;durP1;ratioP1;P1;durP2;ratioP2;P2;SDS_P1;SDS_P2;PMS_P1;PMS_P2;Temp;Humidity;BMP_temperature;BMP_pressure;BME280_temperature;BME280_humidity;BME280_pressure;Samples;Min_cycle;Max_cycle;Signal;HPM_P1;HPM_P2
2022/06/08 00:01:41;;;;;;;;;;;;;;;16.26;100.00;100981.06;5032077;28;20021;-70
2022/06/08 00:04:11;;;;;;;4.95;1.40;;;;;;;16.24;100.00;100976.69;5033133;28;19909;-69
2022/06/08 00:06:36;;;;;;;4.15;1.85;;;;;;;16.16;100.00;100972.28;5023205;28;20105;-68
2022/06/08 00:09:02;;;;;;;5.78;1.70;;;;;;;16.21;100.00;100974.03;5022975;28;20053;-68
2022/06/08 00:11:28;;;;;;;5.28;1.83;;;;;;;16.22;100.00;100965.19;5023201;28;20030;-69
2022/06/08 00:13:54;;;;;;;6.88;1.98;;;;;;;16.24;100.00;100961.63;5032739;28;20384;-69
2022/06/08 00:16:19;;;;;;;12.05;1.92;;;;;;;16.25;100.00;100959.84;5020100;28;20040;-68
2022/06/08 00:18:45;;;;;;;4.60;1.85;;;;;;;16.21;100.00;100961.66;5018449;28;20117;-69
2022/06/08 00:21:13;;;;;;;7.13;2.13;;;;;;;16.24;100.00;100960.75;5019028;28;20018;-69
2022/06/08 00:23:38;;;;;;;5.93;1.83;;;;;;;16.25;100.00;100954.53;5031816;28;20381;-69
2022/06/08 00:26:04;;;;;;;9.00;2.53;;;;;;;16.22;100.00;100950.13;5021953;28;20029;-69
2022/06/08 00:28:31;;;;;;;7.13;2.70;;;;;;;16.22;100.00;100943.94;5026362;28;20028;-69
2022/06/08 00:30:57;;;;;;;10.18;2.67;;;;;;;16.18;100.00;100949.28;5016979;28;20034;-69
2022/06/08 00:33:22;;;;;;;6.25;2.53;;;;;;;16.16;100.00;100944.84;5024071;28;20140;-68
2022/06/08 00:35:48;;;;;;;10.27;3.55;;;;;;;16.11;100.00;100942.22;5036491;28;20440;-68
2022/06/08 00:38:13;;;;;;;8.63;3.33;;;;;;;16.12;100.00;100943.97;5027920;28;20026;-69
2022/06/08 00:41:07;;;;;;;11.32;3.70;;;;;;;16.07;100.00;100937.81;5036099;28;20108;-68
2022/06/08 00:43:34;;;;;;;14.82;4.57;;;;;;;16.08;100.00;100934.28;5034203;28;20195;-68
2022/06/08 00:46:00;;;;;;;11.40;4.85;;;;;;;15.99;100.00;100921.03;5034184;28;20017;-68
2022/06/08 00:48:31;;;;;;;13.05;6.20;;;;;;;15.99;100.00;100921.94;5024611;28;20033;-69
2022/06/08 00:50:57;;;;;;;11.98;6.20;;;;;;;15.94;100.00;100921.06;5016805;28;20397;-68
2022/06/08 00:53:32;;;;;;;15.55;8.00;;;;;;;15.92;100.00;100914.00;5032423;28;20037;-69
2022/06/08 00:56:01;;;;;;;13.63;8.15;;;;;;;15.83;100.00;100909.63;5019446;28;20033;-69
2022/06/08 00:58:29;;;;;;;16.42;8.93;;;;;;;15.79;100.00;100908.72;5027227;28;20117;-68
2022/06/08 01:00:55;;;;;;;18.85;9.45;;;;;;;15.82;100.00;100903.41;5033842;28;20053;-68
2022/06/08 01:03:20;;;;;;;15.43;9.00;;;;;;;15.82;100.00;100894.59;5021357;28;20033;-69
2022/06/08 01:05:55;;;;;;;15.50;9.70;;;;;;;15.83;100.00;100893.72;5035974;28;20036;-68
2022/06/08 01:08:34;;;;;;;20.58;10.88;;;;;;;15.88;100.00;100894.53;5033052;28;20025;-68
2022/06/08 01:11:04;;;;;;;20.42;10.63;;;;;;;15.92;100.00;100895.44;5032092;28;20030;-70
2022/06/08 01:13:34;;;;;;;16.52;10.68;;;;;;;15.88;100.00;100897.19;5034473;28;20029;-70
2022/06/08 01:16:03;;;;;;;19.38;10.98;;;;;;;15.83;100.00;100894.56;5024324;28;20056;-68
2022/06/08 01:18:28;;;;;;;16.10;10.77;;;;;;;15.87;100.00;100886.59;5031342;28;20044;-68
2022/06/08 01:21:21;;;;;;;16.77;11.90;;;;;;;15.87;100.00;100883.94;5034009;28;20025;-68
2022/06/08 01:24:00;;;;;;;19.00;11.10;;;;;;;15.88;100.00;100881.28;5007273;28;20042;-69
2022/06/08 01:26:43;;;;;;;19.73;10.82;;;;;;;15.87;100.00;100875.97;5026043;28;20029;-68
2022/06/08 01:29:22;;;;;;;20.27;11.48;;;;;;;15.84;100.00;100864.50;5036958;28;20018;-69
2022/06/08 01:32:06;;;;;;;19.13;11.27;;;;;;;15.81;100.00;100868.94;5032527;28;20033;-68
2022/06/08 01:34:49;;;;;;;23.08;11.57;;;;;;;15.76;100.00;100860.06;5018452;28;20038;-69
2022/06/08 01:37:37;;;;;;;16.67;10.52;;;;;;;15.73;100.00;100855.66;5022996;28;20030;-69
2022/06/08 01:40:44;;;;;;;16.00;10.57;;;;;;;15.68;100.00;100861.00;5032439;28;20053;-69
2022/06/08 01:43:34;;;;;;;19.52;10.95;;;;;;;15.66;100.00;100860.13;5033887;28;20032;-69
2022/06/08 01:46:08;;;;;;;15.73;10.98;;;;;;;15.61;100.00;100845.09;5034231;28;20029;-71
2022/06/08 01:48:40;;;;;;;17.58;11.25;;;;;;;15.55;100.00;100851.31;5027799;28;20061;-68
2022/06/08 01:51:05;;;;;;;17.67;10.60;;;;;;;15.54;100.00;100843.38;5031881;28;20513;-68
2022/06/08 01:53:41;;;;;;;20.65;11.18;;;;;;;15.50;100.00;100829.25;5017718;28;20032;-69
2022/06/08 01:56:10;;;;;;;17.83;11.02;;;;;;;15.47;100.00;100832.78;5033478;28;20037;-69
2022/06/08 01:58:48;;;;;;;16.75;9.35;;;;;;;15.47;100.00;100827.47;5017450;28;20057;-68
2022/06/08 02:01:32;;;;;;;16.23;10.45;;;;;;;15.44;100.00;100827.50;5028042;28;20083;-68
2022/06/08 02:04:29;;;;;;;15.77;10.55;;;;;;;15.43;100.00;100828.38;5023435;28;20025;-69
2022/06/08 02:07:29;;;;;;;14.65;9.30;;;;;;;15.44;100.00;100816.91;5012147;28;20044;-69
2022/06/08 02:10:00;;;;;;;16.00;8.77;;;;;;;15.39;100.00;100818.69;5034787;28;20424;-70
2022/06/08 02:12:30;;;;;;;15.65;8.20;;;;;;;15.40;100.00;100809.84;5018461;28;20486;-69
2022/06/08 02:15:02;;;;;;;13.82;8.30;;;;;;;15.39;100.00;100799.25;5015248;28;20728;-68
2022/06/08 02:17:37;;;;;;;14.05;7.63;;;;;;;15.38;100.00;100802.78;5023524;28;20029;-68
2022/06/08 02:20:11;;;;;;;8.73;6.30;;;;;;;15.34;100.00;100800.16;5020792;28;20091;-68
2022/06/08 02:22:51;;;;;;;14.05;6.10;;;;;;;15.33;100.00;100794.84;5019280;28;20025;-69
2022/06/08 02:25:20;;;;;;;9.50;6.15;;;;;;;15.32;100.00;100796.59;5025773;28;20026;-69
2022/06/08 02:27:52;;;;;;;8.32;5.70;;;;;;;15.31;100.00;100791.31;5032815;28;20025;-69
2022/06/08 02:30:22;;;;;;;8.65;6.05;;;;;;;15.29;100.00;100790.44;5025924;28;20049;-69
2022/06/08 02:35:59;;;;;;;9.68;5.53;;;;;;;15.15;100.00;100780.78;5029223;28;20171;-69
2022/06/08 02:38:32;;;;;;;7.07;5.13;;;;;;;15.17;100.00;100781.63;5034166;28;20033;-69
2022/06/08 02:40:59;;;;;;;8.73;5.20;;;;;;;15.14;100.00;100780.78;5032717;28;20029;-69
2022/06/08 02:43:34;;;;;;;7.93;5.32;;;;;;;15.13;100.00;100774.59;5032202;28;20040;-69
2022/06/08 02:46:10;;;;;;;7.60;5.10;;;;;;;15.18;100.00;100772.81;5016307;28;20076;-68
2022/06/08 02:48:35;;;;;;;8.55;5.25;;;;;;;15.22;100.00;100770.13;5018282;28;20029;-69
2022/06/08 02:51:02;;;;;;;11.30;5.05;;;;;;;15.20;100.00;100771.94;5029965;28;20397;-69
2022/06/08 02:53:28;;;;;;;7.63;4.22;;;;;;;15.17;100.00;100767.50;5025170;28;20029;-68
2022/06/08 02:56:26;;;;;;;8.00;4.18;;;;;;;15.15;100.00;100761.31;5029386;28;20029;-68
2022/06/08 02:59:16;;;;;;;7.32;4.65;;;;;;;15.10;100.00;100761.34;5021046;28;20386;-68
2022/06/08 03:01:49;;;;;;;9.77;4.22;;;;;;;15.14;100.00;100765.75;5015944;28;20022;-69
2022/06/08 03:04:23;;;;;;;12.35;4.00;;;;;;;15.21;100.00;100765.75;5014241;28;20026;-68
2022/06/08 03:06:56;;;;;;;8.95;4.03;;;;;;;15.24;100.00;100771.03;5031003;28;20026;-68
2022/06/08 03:09:22;;;;;;;8.23;3.80;;;;;;;15.15;100.00;100762.22;5030757;28;20033;-69
2022/06/08 03:12:00;;;;;;;5.60;3.80;;;;;;;15.19;100.00;100757.78;5029012;28;20029;-69
2022/06/08 03:14:28;;;;;;;7.13;3.80;;;;;;;15.25;100.00;100756.91;5029545;28;20473;-69
2022/06/08 03:17:05;;;;;;;7.57;3.88;;;;;;;15.25;100.00;100751.59;5032126;28;20025;-68
2022/06/08 03:19:33;;;;;;;6.68;4.25;;;;;;;15.27;100.00;100753.31;5032923;28;20029;-70
2022/06/08 03:21:58;;;;;;;6.20;3.85;;;;;;;15.33;100.00;100747.13;5021078;28;20030;-68
2022/06/08 03:24:25;;;;;;;8.00;3.70;;;;;;;15.32;100.00;100751.53;5027252;28;20040;-69
2022/06/08 03:26:55;;;;;;;10.80;3.53;;;;;;;15.36;100.00;100746.25;5025585;28;20021;-69
2022/06/08 03:29:21;;;;;;;8.90;3.47;;;;;;;15.35;100.00;100748.00;5027366;28;20375;-68
2022/06/08 03:31:47;;;;;;;6.60;3.13;;;;;;;15.37;100.00;100750.63;5032311;28;20036;-69
2022/06/08 03:34:12;;;;;;;6.78;3.28;;;;;;;15.32;100.00;100750.66;5029792;28;20034;-69
2022/06/08 03:36:38;;;;;;;7.40;3.05;;;;;;;15.36;100.00;100747.09;5028147;28;20038;-68
2022/06/08 03:39:05;;;;;;;5.82;2.95;;;;;;;15.37;100.00;100743.56;5032862;28;20108;-69
2022/06/08 03:41:31;;;;;;;7.18;3.65;;;;;;;15.38;100.00;100750.63;5033229;28;20017;-69
2022/06/08 03:43:57;;;;;;;6.95;3.03;;;;;;;15.39;100.00;100743.56;5029361;28;20021;-69
2022/06/08 03:46:22;;;;;;;7.47;3.05;;;;;;;15.41;100.00;100749.72;5014904;28;20013;-69
2022/06/08 03:48:48;;;;;;;8.43;3.10;;;;;;;15.42;100.00;100746.19;5032612;28;20065;-69
2022/06/08 03:51:16;;;;;;;10.20;2.90;;;;;;;15.36;100.00;100741.81;5032072;28;20119;-70
2022/06/08 03:53:45;;;;;;;5.22;2.55;;;;;;;15.40;100.00;100743.56;5032463;28;20385;-68
2022/06/08 03:56:14;;;;;;;9.70;3.50;;;;;;;15.40;100.00;100735.59;5021584;28;20128;-69
2022/06/08 03:58:39;;;;;;;6.53;2.45;;;;;;;15.43;100.00;100724.97;5032765;28;20088;-69
2022/06/08 04:01:05;;;;;;;7.03;3.00;;;;;;;15.45;100.00;100738.22;5032801;28;20025;-69
2022/06/08 04:03:31;;;;;;;5.22;2.45;;;;;;;15.45;100.00;100739.13;5025639;28;20033;-69
2022/06/08 04:05:58;;;;;;;3.25;2.55;;;;;;;15.49;100.00;100739.97;5031526;28;20026;-68
2022/06/08 04:08:24;;;;;;;9.30;2.60;;;;;;;15.51;100.00;100736.41;5030921;28;20029;-69
2022/06/08 04:10:49;;;;;;;7.05;2.92;;;;;;;15.57;100.00;100737.28;5031191;28;20543;-68
2022/06/08 04:13:14;;;;;;;10.90;2.95;;;;;;;15.58;100.00;100728.44;5022717;28;20076;-69
2022/06/08 04:15:43;;;;;;;7.07;2.70;;;;;;;15.60;100.00;100731.94;5013308;28;20478;-68
2022/06/08 04:18:17;;;;;;;4.47;2.40;;;;;;;15.59;100.00;100727.56;5014093;28;20022;-69
2022/06/08 04:20:44;;;;;;;4.88;3.03;;;;;;;15.56;100.00;100730.19;5023448;28;20029;-67
2022/06/08 04:23:10;;;;;;;4.50;2.60;;;;;;;15.59;100.00;100730.19;5028742;28;20071;-68
2022/06/08 04:25:38;;;;;;;5.15;2.42;;;;;;;15.60;100.00;100732.84;5030886;28;20036;-68
2022/06/08 04:28:04;;;;;;;7.03;2.70;;;;;;;15.65;100.00;100724.84;5031468;28;20093;-69
2022/06/08 04:30:31;;;;;;;9.52;2.95;;;;;;;15.70;100.00;100727.47;5020530;28;20056;-68
2022/06/08 04:32:56;;;;;;;3.72;2.50;;;;;;;15.75;100.00;100715.03;5032176;28;20018;-69
2022/06/08 04:35:23;;;;;;;6.72;2.97;;;;;;;15.78;100.00;100718.56;5028428;28;20501;-69
2022/06/08 04:37:48;;;;;;;4.63;2.75;;;;;;;15.80;100.00;100724.78;5020975;28;20064;-69
2022/06/08 04:40:15;;;;;;;4.85;2.65;;;;;;;15.79;100.00;100723.00;5031272;28;20361;-69
2022/06/08 04:42:41;;;;;;;4.63;2.50;;;;;;;15.80;100.00;100718.59;5031200;28;20087;-68
2022/06/08 04:45:08;;;;;;;6.43;2.60;;;;;;;15.82;100.00;100712.38;5032561;28;20029;-68
2022/06/08 04:47:34;;;;;;;3.22;2.25;;;;;;;15.88;100.00;100710.56;5030984;28;20162;-68
2022/06/08 04:49:59;;;;;;;3.40;2.53;;;;;;;15.88;100.00;100710.56;5023197;28;20076;-70
2022/06/08 04:52:25;;;;;;;10.75;3.08;;;;;;;15.88;100.00;100711.44;5026135;28;20432;-69
2022/06/08 04:54:50;;;;;;;6.78;2.75;;;;;;;15.87;100.00;100706.16;5028969;28;20026;-68
2022/06/08 04:57:16;;;;;;;6.10;2.90;;;;;;;15.86;100.00;100713.25;5031384;28;20025;-68
2022/06/08 04:59:41;;;;;;;5.53;2.60;;;;;;;15.88;100.00;100707.94;5023916;28;20036;-69
2022/06/08 05:02:08;;;;;;;8.48;3.22;;;;;;;15.89;100.00;100707.03;5017916;28;20025;-68
2022/06/08 05:04:33;;;;;;;7.78;2.88;;;;;;;15.87;100.00;100693.78;5021493;28;20121;-69
2022/06/08 05:06:59;;;;;;;7.53;2.83;;;;;;;15.92;100.00;100701.69;5020633;28;20521;-69
2022/06/08 05:09:24;;;;;;;14.13;3.58;;;;;;;15.93;100.00;100698.16;5028497;28;20488;-69
2022/06/08 05:11:50;;;;;;;8.75;3.22;;;;;;;15.90;100.00;100695.50;5023207;28;20022;-68
2022/06/08 05:14:15;;;;;;;7.82;3.53;;;;;;;15.96;100.00;100695.47;5026921;28;20029;-69
2022/06/08 05:16:41;;;;;;;3.75;2.90;;;;;;;15.97;100.00;100690.16;5031556;28;20021;-70
2022/06/08 05:19:06;;;;;;;5.30;3.10;;;;;;;16.02;100.00;100687.47;5023033;28;20025;-68
2022/06/08 05:21:32;;;;;;;4.93;3.80;;;;;;;16.02;100.00;100677.72;5029458;28;20066;-68
2022/06/08 05:23:57;;;;;;;8.98;3.67;;;;;;;16.06;100.00;100686.56;5026235;28;20022;-68
2022/06/08 05:26:23;;;;;;;6.60;4.25;;;;;;;16.05;100.00;100684.78;5022177;28;20083;-68
2022/06/08 05:28:48;;;;;;;11.48;4.43;;;;;;;16.05;100.00;100682.13;5027508;28;20033;-68
2022/06/08 05:31:13;;;;;;;7.03;4.05;;;;;;;16.07;100.00;100680.34;5035747;28;20032;-68
2022/06/08 05:33:39;;;;;;;5.75;4.30;;;;;;;16.08;100.00;100687.41;5021293;28;20034;-69
2022/06/08 05:36:05;;;;;;;9.60;4.50;;;;;;;16.07;100.00;100685.63;5024532;28;20017;-69
2022/06/08 05:38:30;;;;;;;6.85;4.15;;;;;;;16.02;100.00;100679.50;5028242;28;20036;-69
2022/06/08 05:40:56;;;;;;;6.75;3.88;;;;;;;16.01;100.00;100675.09;5025971;28;20072;-68
2022/06/08 05:43:22;;;;;;;7.35;4.20;;;;;;;16.06;100.00;100673.28;5026932;28;20385;-69
2022/06/08 05:45:47;;;;;;;6.72;3.97;;;;;;;16.12;100.00;100669.69;5026705;28;20034;-70
2022/06/08 05:48:14;;;;;;;5.45;3.72;;;;;;;16.18;100.00;100667.84;5018744;28;20375;-69
2022/06/08 05:50:41;;;;;;;6.50;4.03;;;;;;;16.23;100.00;100665.16;5038394;28;20046;-68
2022/06/08 05:53:07;;;;;;;8.10;4.32;;;;;;;16.24;100.00;100661.59;5033755;28;20025;-68
2022/06/08 05:55:32;;;;;;;6.15;4.03;;;;;;;16.31;100.00;100659.78;5028270;28;21490;-67
2022/06/08 05:57:58;;;;;;;11.48;4.32;;;;;;;16.33;100.00;100656.22;5025821;28;20025;-68
2022/06/08 06:00:27;;;;;;;5.22;3.75;;;;;;;16.40;100.00;100656.13;5017348;28;20460;-68
2022/06/08 06:02:53;;;;;;;10.63;3.83;;;;;;;16.43;100.00;100646.34;5032752;28;20037;-67
2022/06/08 06:05:23;;;;;;;7.13;3.78;;;;;;;16.48;100.00;100638.31;5030565;28;20441;-68
2022/06/08 06:07:49;;;;;;;6.70;3.35;;;;;;;16.48;100.00;100638.31;5033763;28;20029;-68
2022/06/08 06:10:15;;;;;;;7.10;3.70;;;;;;;16.51;100.00;100628.56;5035059;28;20037;-68
2022/06/08 06:12:41;;;;;;;6.07;3.72;;;;;;;16.58;100.00;100632.03;5032037;28;20121;-68
2022/06/08 06:15:08;;;;;;;9.18;3.72;;;;;;;16.65;100.00;100628.38;5032640;28;20120;-67
2022/06/08 06:17:33;;;;;;;4.85;3.08;;;;;;;16.73;100.00;100625.66;5034726;28;20380;-67
2022/06/08 06:19:59;;;;;;;4.38;3.10;;;;;;;16.80;100.00;100627.31;5031933;28;20030;-66
2022/06/08 06:22:25;;;;;;;7.05;3.00;;;;;;;16.89;100.00;100620.13;5014219;28;20474;-67
2022/06/08 06:24:50;;;;;;;5.97;3.67;;;;;;;16.92;100.00;100622.81;5023861;28;20079;-66
2022/06/08 06:27:16;;;;;;;7.25;3.75;;;;;;;16.99;100.00;100622.69;5034520;28;20021;-67
2022/06/08 06:29:41;;;;;;;8.38;4.00;;;;;;;17.08;100.00;100620.78;5026394;28;20029;-69
2022/06/08 06:32:13;;;;;;;10.20;3.92;;;;;;;17.15;100.00;100612.72;5028294;28;20500;-68
2022/06/08 06:34:38;;;;;;;6.80;3.90;;;;;;;17.27;100.00;100621.41;5033047;28;20044;-68
2022/06/08 06:37:04;;;;;;;6.03;3.20;;;;;;;17.28;100.00;100626.72;5034311;28;20025;-67
2022/06/08 06:39:29;;;;;;;7.03;3.30;;;;;;;17.37;100.00;100620.38;5027924;28;20021;-67
2022/06/08 06:41:57;;;;;;;7.63;3.70;;;;;;;17.39;100.00;100629.22;5017604;28;20022;-67
2022/06/08 06:44:23;;;;;;;6.38;3.35;;;;;;;17.33;100.00;100632.84;5032899;28;20396;-67
2022/06/08 06:46:49;;;;;;;5.78;3.15;;;;;;;17.32;100.00;100630.19;5034104;28;20029;-67
2022/06/08 06:49:14;;;;;;;4.50;3.03;;;;;;;17.24;100.00;100626.78;5032622;28;20041;-68
2022/06/08 06:51:40;;;;;;;6.63;3.00;;;;;;;17.17;100.00;100624.22;5018463;28;20025;-67
2022/06/08 06:54:07;;;;;;;8.15;3.40;;;;;;;17.19;100.00;100624.19;5033880;28;20021;-67
2022/06/08 06:56:33;;;;;;;7.53;3.40;;;;;;;17.26;100.00;100622.31;5033467;28;20484;-67
2022/06/08 06:59:00;;;;;;;11.38;4.32;;;;;;;17.36;100.00;100621.28;5029520;28;20026;-67
2022/06/08 07:01:25;;;;;;;5.55;3.92;;;;;;;17.44;100.00;100616.72;5032370;28;20021;-67
2022/06/08 07:03:51;;;;;;;7.50;4.70;;;;;;;17.58;100.00;100615.63;5033567;28;20499;-67
2022/06/08 07:06:16;;;;;;;7.40;5.13;;;;;;;17.61;100.00;100613.78;5033864;28;20026;-68
2022/06/08 07:08:42;;;;;;;6.63;4.80;;;;;;;17.64;100.00;100613.72;5032791;28;20016;-68
2022/06/08 07:11:32;;;;;;;7.95;4.90;;;;;;;17.73;100.00;100607.41;5013868;28;20060;-67
2022/06/08 07:13:59;;;;;;;8.77;4.85;;;;;;;17.80;100.00;100595.72;5014027;28;20100;-67
2022/06/08 07:16:25;;;;;;;6.88;4.85;;;;;;;17.85;100.00;100601.84;5021776;28;20025;-68
2022/06/08 07:18:50;;;;;;;8.13;4.97;;;;;;;17.91;100.00;100594.69;5032921;28;20033;-68
2022/06/08 07:21:16;;;;;;;6.93;4.55;;;;;;;17.99;100.00;100598.13;5033130;28;20429;-68
2022/06/08 07:23:41;;;;;;;15.60;5.38;;;;;;;18.06;100.00;100593.56;5028980;28;20594;-68
2022/06/08 07:26:07;;;;;;;10.85;5.20;;;;;;;18.07;100.00;100590.88;5013729;28;20470;-68
2022/06/08 07:28:32;;;;;;;10.32;5.18;;;;;;;18.00;100.00;100586.53;5014182;28;20026;-69
2022/06/08 07:30:58;;;;;;;11.32;5.28;;;;;;;18.07;100.00;100585.53;5027523;28;20053;-67
2022/06/08 07:33:23;;;;;;;8.70;5.20;;;;;;;18.15;100.00;100580.94;5014615;28;20080;-68
2022/06/08 07:35:49;;;;;;;7.88;4.43;;;;;;;18.24;100.00;100581.66;5013647;28;20028;-67
2022/06/08 07:38:14;;;;;;;8.75;4.28;;;;;;;18.22;100.00;100579.03;5014086;28;20053;-67
2022/06/08 07:40:40;;;;;;;5.88;3.80;;;;;;;18.31;100.00;100577.97;5031100;28;20021;-68
2022/06/08 07:43:05;;;;;;;9.95;4.60;;;;;;;18.44;100.00;100576.81;5032975;28;20025;-68
2022/06/08 07:45:31;;;;;;;10.02;4.90;;;;;;;18.55;100.00;100568.59;5030294;28;20025;-68
2022/06/08 07:50:41;;;;;;;8.00;4.90;;;;;;;18.52;100.00;100577.53;5028421;28;20099;-68
2022/06/08 07:53:07;;;;;;;9.82;4.97;;;;;;;18.49;100.00;100577.59;5025786;28;20036;-67
2022/06/08 07:55:33;;;;;;;13.30;5.07;;;;;;;18.55;100.00;100573.94;5030907;28;20112;-67
2022/06/08 07:57:58;;;;;;;8.32;4.68;;;;;;;18.66;100.00;100579.03;5032454;28;20060;-68
2022/06/08 08:00:24;;;;;;;8.45;5.80;;;;;;;18.61;100.00;100578.25;5030011;28;20064;-68
2022/06/08 08:02:49;;;;;;;9.25;5.03;;;;;;;18.50;100.00;100589.13;5031842;28;20087;-65
2022/06/08 08:05:16;;;;;;;9.25;5.32;;;;;;;18.13;100.00;100584.53;5017101;28;20159;-66
2022/06/08 08:07:42;;;;;;;10.55;5.65;;;;;;;18.05;100.00;100584.66;5013295;28;20030;-67
2022/06/08 08:10:13;;;;;;;8.30;4.88;;;;;;;18.11;100.00;100584.56;5044003;28;20067;-67
2022/06/08 08:12:39;;;;;;;10.23;5.50;;;;;;;18.30;100.00;100582.44;5044024;28;20392;-68
2022/06/08 08:15:05;;;;;;;8.05;5.68;;;;;;;18.34;100.00;100577.94;5033071;28;20033;-67
2022/06/08 08:17:31;;;;;;;9.55;5.93;;;;;;;18.50;100.00;100575.81;5030209;28;20033;-67
2022/06/08 08:19:56;;;;;;;10.50;5.85;;;;;;;18.75;100.00;100584.19;5032996;28;20416;-68
2022/06/08 08:22:21;;;;;;;10.77;6.32;;;;;;;18.97;100.00;100575.75;5025108;28;20109;-69
2022/06/08 08:24:48;;;;;;;9.50;6.53;;;;;;;19.11;100.00;100578.94;5024368;28;20159;-71
2022/06/08 08:27:13;;;;;;;10.40;6.18;;;;;;;19.19;100.00;100566.34;5031769;28;20044;-69
2022/06/08 08:29:39;;;;;;;9.85;6.38;;;;;;;19.35;100.00;100574.81;5029657;28;20033;-70
2022/06/08 08:32:07;;;;;;;8.77;5.70;;;;;;;19.19;100.00;100561.00;5025280;28;20031;-69
2022/06/08 08:34:32;;;;;;;9.68;6.00;;;;;;;19.11;100.00;100559.41;5032981;28;20041;-68
2022/06/08 08:36:58;;;;;;;6.53;5.60;;;;;;;19.06;100.00;100556.88;5021794;28;20071;-70
2022/06/08 08:39:24;;;;;;;7.88;5.43;;;;;;;19.15;100.00;100562.00;5030278;28;20045;-69
2022/06/08 08:44:40;;;;;;;9.18;5.70;;;;;;;19.28;100.00;100561.69;5031290;28;20063;-69
2022/06/08 08:47:12;;;;;;;10.18;6.05;;;;;;;19.39;100.00;100554.28;5031437;28;20032;-69
2022/06/08 08:49:43;;;;;;;10.90;5.75;;;;;;;19.29;100.00;100560.75;5033614;28;20072;-68
2022/06/08 08:52:31;;;;;;;10.38;5.47;;;;;;;19.24;100.00;100558.22;5030165;28;20112;-68
2022/06/08 08:55:15;;;;;;;8.75;5.47;;;;;;;19.13;100.00;100555.81;5027000;28;20037;-68
2022/06/08 08:57:57;;;;;;;7.80;5.43;;;;;;;19.10;100.00;100565.66;5036382;28;20075;-69
2022/06/08 09:00:42;;;;;;;8.30;5.13;;;;;;;19.04;100.00;100564.91;5036356;28;20496;-69
2022/06/08 09:03:32;;;;;;;8.65;6.15;;;;;;;18.81;100.00;100568.03;5032807;28;20030;-70
2022/06/08 09:06:07;;;;;;;10.38;5.95;;;;;;;18.72;100.00;100562.94;5016439;28;20030;-69
2022/06/08 09:08:33;;;;;;;9.95;6.32;;;;;;;18.67;100.00;100568.34;5019985;28;20078;-69
2022/06/08 09:11:00;;;;;;;8.95;6.25;;;;;;;18.68;100.00;100566.56;5034863;28;20497;-68
2022/06/08 09:13:41;;;;;;;7.60;5.20;;;;;;;18.70;100.00;100559.41;5030350;28;20048;-68
2022/06/08 09:16:06;;;;;;;8.30;5.82;;;;;;;18.54;100.00;100561.50;5019052;28;20033;-68
2022/06/08 09:18:35;;;;;;;9.77;4.43;;;;;;;18.43;100.00;100572.38;5032646;28;20024;-68
2022/06/08 09:21:27;;;;;;;7.07;4.38;;;;;;;18.37;100.00;100578.72;5029698;28;20061;-68
2022/06/08 09:24:28;;;;;;;7.28;3.90;;;;;;;18.15;100.00;100572.94;5034227;28;20358;-67
2022/06/08 09:27:11;;;;;;;7.65;3.60;;;;;;;17.86;100.00;100587.66;5027208;28;20049;-68
2022/06/08 09:29:46;;;;;;;;;;;;;;;17.83;100.00;100581.50;5036286;28;20083;-69
2022/06/08 09:32:30;;;;;;;8.27;3.20;;;;;;;17.64;100.00;100576.47;5034078;28;19917;-69
2022/06/08 09:34:57;;;;;;;;;;;;;;;17.36;100.00;100576.06;5029843;28;20397;-68
2022/06/08 09:37:24;;;;;;;10.95;3.78;;;;;;;17.31;100.00;100585.91;5026066;28;19912;-68
2022/06/08 09:39:52;;;;;;;6.72;4.43;;;;;;;17.31;100.00;100577.94;5029574;28;20032;-68
2022/06/08 09:42:22;;;;;;;7.82;4.35;;;;;;;17.00;100.00;100583.69;5016913;28;20026;-67
2022/06/08 09:45:34;;;;;;;7.45;4.45;;;;;;;16.79;100.00;100583.06;5015789;28;20036;-68
2022/06/08 09:51:26;;;;;;;11.45;4.93;;;;;;;16.54;100.00;100582.50;5018373;28;20049;-67
2022/06/08 09:54:03;;;;;;;9.77;5.78;;;;;;;16.67;100.00;100575.22;5028766;28;20037;-68
2022/06/08 09:56:50;;;;;;;12.05;5.68;;;;;;;16.67;100.00;100575.22;5033154;28;20037;-68
2022/06/08 09:59:53;;;;;;;9.65;4.78;;;;;;;16.56;100.00;100582.47;5034634;28;20040;-66
2022/06/08 10:02:30;;;;;;;9.85;5.22;;;;;;;16.46;100.00;100574.59;5030272;28;20035;-68
2022/06/08 10:04:58;;;;;;;10.98;5.30;;;;;;;16.48;100.00;100579.91;5019801;28;20481;-68
2022/06/08 10:07:55;;;;;;;9.00;4.10;;;;;;;16.34;100.00;100582.72;5031934;28;20040;-68
2022/06/08 10:10:34;;;;;;;7.93;4.20;;;;;;;16.40;100.00;100587.97;5041502;28;20388;-68
2022/06/08 10:13:05;;;;;;;9.75;3.78;;;;;;;16.25;100.00;100590.78;5019930;28;20026;-68
2022/06/08 10:15:42;;;;;;;7.05;3.78;;;;;;;16.22;100.00;100582.88;5023568;28;20052;-68
2022/06/08 10:18:25;;;;;;;9.52;3.70;;;;;;;16.16;100.00;100589.13;5022940;28;20416;-68
2022/06/08 10:20:59;;;;;;;6.90;3.10;;;;;;;15.99;100.00;100598.16;5021242;28;20030;-67
2022/06/08 10:23:34;;;;;;;10.02;2.95;;;;;;;15.78;100.00;100583.25;5032953;28;20060;-68
2022/06/08 10:26:04;;;;;;;10.70;2.95;;;;;;;15.76;100.00;100582.41;5031039;28;20026;-68
2022/06/08 10:28:36;;;;;;;7.45;2.42;;;;;;;15.68;100.00;100587.78;5032272;28;20083;-68
2022/06/08 10:31:15;;;;;;;8.93;2.55;;;;;;;15.64;100.00;100585.16;5032953;28;20496;-67
2022/06/08 10:34:11;;;;;;;9.60;2.55;;;;;;;15.71;100.00;100589.53;5029382;28;20040;-69
2022/06/08 10:36:37;;;;;;;8.52;2.40;;;;;;;15.61;100.00;100587.84;5022810;28;20025;-67
2022/06/08 10:39:05;;;;;;;8.57;2.22;;;;;;;15.54;100.00;100594.09;5028510;28;20029;-68
2022/06/08 10:44:31;;;;;;;9.13;2.90;;;;;;;15.56;100.00;100598.50;5029978;28;20048;-68
2022/06/08 10:47:09;;;;;;;9.38;2.83;;;;;;;15.37;100.00;100597.75;5015348;28;20021;-68
2022/06/08 10:49:34;;;;;;;12.98;3.17;;;;;;;15.32;100.00;100587.16;5019718;28;20053;-68
2022/06/08 10:52:11;;;;;;;7.28;2.35;;;;;;;15.28;100.00;100592.50;5021862;28;20035;-68
2022/06/08 10:54:55;;;;;;;7.07;2.70;;;;;;;15.21;100.00;100591.66;5032952;28;20033;-68
2022/06/08 10:57:35;;;;;;;12.18;2.95;;;;;;;15.14;100.00;100596.13;5021293;28;20026;-68
2022/06/08 11:00:19;;;;;;;7.63;2.60;;;;;;;15.23;100.00;100586.34;5028744;28;20033;-68
2022/06/08 11:02:48;;;;;;;7.97;2.42;;;;;;;15.20;100.00;100586.38;5024755;28;20021;-69
2022/06/08 11:05:18;;;;;;;9.68;3.42;;;;;;;15.14;100.00;100587.31;5023919;28;20048;-67
2022/06/08 11:07:59;;;;;;;12.57;3.35;;;;;;;15.21;100.00;100585.50;5026041;28;20026;-67
2022/06/08 11:11:24;;;;;;;10.05;3.28;;;;;;;15.19;100.00;100582.84;5025053;28;20059;-67
2022/06/08 11:13:36;;;;;;;10.13;3.40;;;;;;;15.28;100.00;100588.06;5019827;28;20042;-69
2022/06/08 11:16:24;;;;;;;9.73;3.15;;;;;;;15.14;100.00;100584.66;5022426;28;20052;-68
2022/06/08 11:19:02;;;;;;;7.43;2.72;;;;;;;15.13;100.00;100581.09;5020126;28;20034;-68
2022/06/08 11:21:54;;;;;;;7.30;3.03;;;;;;;15.16;100.00;100578.44;5024594;28;20477;-68
2022/06/08 11:24:38;;;;;;;10.02;2.95;;;;;;;15.10;100.00;100577.63;5006464;28;20120;-68
2022/06/08 11:27:09;;;;;;;12.57;2.92;;;;;;;15.12;100.00;100576.69;5028333;28;20495;-67
2022/06/08 11:29:35;;;;;;;12.23;3.30;;;;;;;15.08;100.00;100569.66;5031637;28;20379;-67
2022/06/08 11:32:00;;;;;;;8.93;3.00;;;;;;;15.03;100.00;100563.53;5014237;28;20018;-68
2022/06/08 11:34:47;;;;;;;8.52;3.00;;;;;;;14.94;100.00;100560.94;5017462;28;20472;-67
2022/06/08 11:37:31;;;;;;;7.82;2.33;;;;;;;15.06;100.00;100555.53;5027342;28;20022;-69
2022/06/08 11:40:12;;;;;;;7.18;2.95;;;;;;;15.04;100.00;100562.63;5031415;28;20072;-67
2022/06/08 11:42:47;;;;;;;7.03;2.97;;;;;;;15.14;100.00;100556.38;5018537;28;20374;-66
2022/06/08 11:45:24;;;;;;;6.78;2.83;;;;;;;15.17;100.00;100553.69;5013569;28;20132;-68
2022/06/08 11:48:08;;;;;;;8.70;3.13;;;;;;;15.23;100.00;100546.59;5019617;28;20424;-67